sensor_id;sensor_type;location;lat;lon;timestamp;P1;durP1;ratioP1;P2;durP2;ratioP2
3099;SDS011;1560;52.746;13.474;2023-02-28T00:03:04;4.17;;;2.60;;
3099;SDS011;1560;52.746;13.474;2023-02-28T00:05:32;4.65;;;3.17;;
3099;SDS011;1560;52.746;13.474;2023-02-28T00:08:01;3.87;;;2.92;;
3099;SDS011;1560;52.746;13.474;2023-02-28T00:10:31;3.92;;;2.72;;
3099;SDS011;1560;52.746;13.474;2023-02-28T00:13:08;4.67;;;2.87;;
3099;SDS011;1560;52.746;13.474;2023-02-28T00:15:38;5.55;;;3.10;;
3099;SDS011;1560;52.746;13.474;2023-02-28T00:18:07;3.90;;;2.08;;
3099;SDS011;1560;52.746;13.474;2023-02-28T00:20:35;4.12;;;2.83;;
3099;SDS011;1560;52.746;13.474;2023-02-28T00:23:04;5.15;;;2.75;;
3099;SDS011;1560;52.746;13.474;2023-02-28T00:25:33;3.17;;;1.90;;
3099;SDS011;1560;52.746;13.474;2023-02-28T00:28:02;3.37;;;2.27;;
3099;SDS011;1560;52.746;13.474;2023-02-28T00:33:07;8.58;;;2.17;;
3099;SDS011;1560;52.746;13.474;2023-02-28T00:35:37;6.35;;;2.65;;
3099;SDS011;1560;52.746;13.474;2023-02-28T00:38:06;5.33;;;2.45;;
3099;SDS011;1560;52.746;13.474;2023-02-28T00:43:23;4.33;;;2.20;;
3099;SDS011;1560;52.746;13.474;2023-02-28T00:45:52;4.67;;;2.10;;
3099;SDS011;1560;52.746;13.474;2023-02-28T00:48:20;4.25;;;1.95;;
3099;SDS011;1560;52.746;13.474;2023-02-28T00:50:49;5.62;;;2.40;;
3099;SDS011;1560;52.746;13.474;2023-02-28T00:53:18;4.17;;;2.10;;
3099;SDS011;1560;52.746;13.474;2023-02-28T00:55:47;3.92;;;2.30;;
3099;SDS011;1560;52.746;13.474;2023-02-28T01:00:52;3.20;;;1.90;;
3099;SDS011;1560;52.746;13.474;2023-02-28T01:05:58;5.25;;;2.40;;
3099;SDS011;1560;52.746;13.474;2023-02-28T01:08:27;5.22;;;2.12;;
3099;SDS011;1560;52.746;13.474;2023-02-28T01:10:56;5.85;;;2.10;;
3099;SDS011;1560;52.746;13.474;2023-02-28T01:13:25;4.50;;;2.42;;
3099;SDS011;1560;52.746;13.474;2023-02-28T01:15:55;4.42;;;2.20;;
3099;SDS011;1560;52.746;13.474;2023-02-28T01:18:24;4.85;;;2.20;;
3099;SDS011;1560;52.746;13.474;2023-02-28T01:20:53;3.60;;;2.80;;
3099;SDS011;1560;52.746;13.474;2023-02-28T01:23:22;5.90;;;2.72;;
3099;SDS011;1560;52.746;13.474;2023-02-28T01:25:51;5.05;;;2.22;;
3099;SDS011;1560;52.746;13.474;2023-02-28T01:28:20;4.67;;;2.10;;
3099;SDS011;1560;52.746;13.474;2023-02-28T01:30:50;2.85;;;1.80;;
3099;SDS011;1560;52.746;13.474;2023-02-28T01:33:19;3.45;;;2.00;;
3099;SDS011;1560;52.746;13.474;2023-02-28T01:38:24;4.25;;;2.12;;
3099;SDS011;1560;52.746;13.474;2023-02-28T01:40:53;4.17;;;2.25;;
3099;SDS011;1560;52.746;13.474;2023-02-28T01:45:58;4.95;;;2.33;;
3099;SDS011;1560;52.746;13.474;2023-02-28T01:48:29;4.22;;;2.58;;
3099;SDS011;1560;52.746;13.474;2023-02-28T01:51:00;4.00;;;2.42;;
3099;SDS011;1560;52.746;13.474;2023-02-28T01:53:33;3.00;;;1.90;;
3099;SDS011;1560;52.746;13.474;2023-02-28T01:56:11;4.55;;;2.40;;
3099;SDS011;1560;52.746;13.474;2023-02-28T01:58:44;3.85;;;2.30;;
3099;SDS011;1560;52.746;13.474;2023-02-28T02:01:13;2.70;;;1.92;;
3099;SDS011;1560;52.746;13.474;2023-02-28T02:03:51;5.20;;;2.42;;
3099;SDS011;1560;52.746;13.474;2023-02-28T02:06:22;3.42;;;2.02;;
3099;SDS011;1560;52.746;13.474;2023-02-28T02:08:52;3.35;;;2.12;;
3099;SDS011;1560;52.746;13.474;2023-02-28T02:11:21;5.20;;;2.22;;
3099;SDS011;1560;52.746;13.474;2023-02-28T02:14:05;3.42;;;2.22;;
3099;SDS011;1560;52.746;13.474;2023-02-28T02:16:50;3.58;;;2.00;;
3099;SDS011;1560;52.746;13.474;2023-02-28T02:19:41;4.22;;;2.20;;
3099;SDS011;1560;52.746;13.474;2023-02-28T02:22:30;5.62;;;2.75;;
3099;SDS011;1560;52.746;13.474;2023-02-28T02:25:18;5.00;;;2.12;;
3099;SDS011;1560;52.746;13.474;2023-02-28T02:30:57;5.70;;;2.20;;
3099;SDS011;1560;52.746;13.474;2023-02-28T02:34:01;4.70;;;2.17;;
3099;SDS011;1560;52.746;13.474;2023-02-28T02:36:53;3.37;;;2.45;;
3099;SDS011;1560;52.746;13.474;2023-02-28T02:39:27;6.58;;;2.87;;
3099;SDS011;1560;52.746;13.474;2023-02-28T02:42:08;4.22;;;2.33;;
3099;SDS011;1560;52.746;13.474;2023-02-28T02:44:46;5.75;;;2.60;;
3099;SDS011;1560;52.746;13.474;2023-02-28T02:47:17;3.50;;;2.05;;
3099;SDS011;1560;52.746;13.474;2023-02-28T02:55:26;5.70;;;2.50;;
3099;SDS011;1560;52.746;13.474;2023-02-28T02:57:58;4.15;;;1.95;;
3099;SDS011;1560;52.746;13.474;2023-02-28T03:00:29;4.20;;;2.77;;
3099;SDS011;1560;52.746;13.474;2023-02-28T03:03:08;4.62;;;2.55;;
3099;SDS011;1560;52.746;13.474;2023-02-28T03:05:41;5.20;;;2.62;;
3099;SDS011;1560;52.746;13.474;2023-02-28T03:08:20;3.10;;;2.40;;
3099;SDS011;1560;52.746;13.474;2023-02-28T03:10:50;4.70;;;2.90;;
3099;SDS011;1560;52.746;13.474;2023-02-28T03:13:29;4.97;;;2.85;;
3099;SDS011;1560;52.746;13.474;2023-02-28T03:16:28;5.67;;;2.50;;
3099;SDS011;1560;52.746;13.474;2023-02-28T03:19:04;5.25;;;2.50;;
3099;SDS011;1560;52.746;13.474;2023-02-28T03:24:15;6.37;;;2.27;;
3099;SDS011;1560;52.746;13.474;2023-02-28T03:26:47;4.80;;;2.50;;
3099;SDS011;1560;52.746;13.474;2023-02-28T03:29:20;4.03;;;2.50;;
3099;SDS011;1560;52.746;13.474;2023-02-28T03:34:28;5.65;;;2.65;;
3099;SDS011;1560;52.746;13.474;2023-02-28T03:40:02;5.92;;;2.92;;
3099;SDS011;1560;52.746;13.474;2023-02-28T03:42:35;5.15;;;2.27;;
3099;SDS011;1560;52.746;13.474;2023-02-28T03:45:08;4.30;;;2.37;;
3099;SDS011;1560;52.746;13.474;2023-02-28T03:50:16;4.12;;;2.35;;
3099;SDS011;1560;52.746;13.474;2023-02-28T03:52:49;6.92;;;2.17;;
3099;SDS011;1560;52.746;13.474;2023-02-28T03:55:19;5.12;;;2.85;;
3099;SDS011;1560;52.746;13.474;2023-02-28T04:00:29;4.45;;;2.25;;
3099;SDS011;1560;52.746;13.474;2023-02-28T04:02:59;5.53;;;3.00;;
3099;SDS011;1560;52.746;13.474;2023-02-28T04:05:28;5.40;;;2.45;;
3099;SDS011;1560;52.746;13.474;2023-02-28T04:08:07;8.55;;;2.80;;
3099;SDS011;1560;52.746;13.474;2023-02-28T04:10:36;6.08;;;2.65;;
3099;SDS011;1560;52.746;13.474;2023-02-28T04:13:05;5.00;;;3.17;;
3099;SDS011;1560;52.746;13.474;2023-02-28T04:18:11;3.08;;;2.30;;
3099;SDS011;1560;52.746;13.474;2023-02-28T04:20:39;5.20;;;2.50;;
3099;SDS011;1560;52.746;13.474;2023-02-28T04:23:08;4.75;;;2.15;;
3099;SDS011;1560;52.746;13.474;2023-02-28T04:25:37;4.55;;;2.47;;
3099;SDS011;1560;52.746;13.474;2023-02-28T04:28:06;3.50;;;2.10;;
3099;SDS011;1560;52.746;13.474;2023-02-28T04:30:36;4.53;;;2.33;;
3099;SDS011;1560;52.746;13.474;2023-02-28T04:33:06;3.98;;;2.15;;
3099;SDS011;1560;52.746;13.474;2023-02-28T04:35:34;4.70;;;2.77;;
3099;SDS011;1560;52.746;13.474;2023-02-28T04:38:03;6.65;;;3.12;;
3099;SDS011;1560;52.746;13.474;2023-02-28T04:40:32;4.75;;;2.47;;
3099;SDS011;1560;52.746;13.474;2023-02-28T04:43:01;5.55;;;2.42;;
3099;SDS011;1560;52.746;13.474;2023-02-28T04:45:30;4.75;;;2.37;;
3099;SDS011;1560;52.746;13.474;2023-02-28T04:48:00;3.00;;;2.40;;
3099;SDS011;1560;52.746;13.474;2023-02-28T04:50:29;5.40;;;2.47;;
3099;SDS011;1560;52.746;13.474;2023-02-28T04:55:34;5.45;;;2.70;;
3099;SDS011;1560;52.746;13.474;2023-02-28T04:58:03;4.87;;;2.30;;
3099;SDS011;1560;52.746;13.474;2023-02-28T05:00:31;6.33;;;3.20;;
3099;SDS011;1560;52.746;13.474;2023-02-28T05:03:00;3.02;;;2.22;;
3099;SDS011;1560;52.746;13.474;2023-02-28T05:08:05;6.47;;;3.60;;
3099;SDS011;1560;52.746;13.474;2023-02-28T05:13:12;5.97;;;2.80;;
3099;SDS011;1560;52.746;13.474;2023-02-28T05:15:41;4.95;;;2.77;;
3099;SDS011;1560;52.746;13.474;2023-02-28T05:18:10;4.65;;;2.85;;
3099;SDS011;1560;52.746;13.474;2023-02-28T05:20:39;7.45;;;3.08;;
3099;SDS011;1560;52.746;13.474;2023-02-28T05:23:08;4.72;;;3.00;;
3099;SDS011;1560;52.746;13.474;2023-02-28T05:25:40;7.42;;;3.75;;
3099;SDS011;1560;52.746;13.474;2023-02-28T05:28:09;5.58;;;3.50;;
3099;SDS011;1560;52.746;13.474;2023-02-28T05:30:38;7.33;;;2.67;;
3099;SDS011;1560;52.746;13.474;2023-02-28T05:33:10;5.83;;;2.80;;
3099;SDS011;1560;52.746;13.474;2023-02-28T05:35:39;5.87;;;2.80;;
3099;SDS011;1560;52.746;13.474;2023-02-28T05:38:09;6.37;;;3.52;;
3099;SDS011;1560;52.746;13.474;2023-02-28T05:40:38;6.08;;;3.30;;
3099;SDS011;1560;52.746;13.474;2023-02-28T05:43:08;4.28;;;2.60;;
3099;SDS011;1560;52.746;13.474;2023-02-28T05:45:47;7.62;;;2.92;;
3099;SDS011;1560;52.746;13.474;2023-02-28T05:48:16;5.15;;;3.10;;
3099;SDS011;1560;52.746;13.474;2023-02-28T05:50:44;5.15;;;2.90;;
3099;SDS011;1560;52.746;13.474;2023-02-28T05:53:22;5.45;;;3.22;;
3099;SDS011;1560;52.746;13.474;2023-02-28T05:55:52;5.87;;;2.95;;
3099;SDS011;1560;52.746;13.474;2023-02-28T05:58:21;5.75;;;3.25;;
3099;SDS011;1560;52.746;13.474;2023-02-28T06:03:28;4.80;;;2.80;;
3099;SDS011;1560;52.746;13.474;2023-02-28T06:08:33;4.00;;;2.90;;
3099;SDS011;1560;52.746;13.474;2023-02-28T06:13:39;13.60;;;3.17;;
3099;SDS011;1560;52.746;13.474;2023-02-28T06:16:08;6.97;;;3.70;;
3099;SDS011;1560;52.746;13.474;2023-02-28T06:18:39;4.70;;;3.02;;
3099;SDS011;1560;52.746;13.474;2023-02-28T06:21:08;7.95;;;3.65;;
3099;SDS011;1560;52.746;13.474;2023-02-28T06:23:36;8.65;;;3.83;;
3099;SDS011;1560;52.746;13.474;2023-02-28T06:26:06;7.00;;;3.75;;
3099;SDS011;1560;52.746;13.474;2023-02-28T06:28:45;7.78;;;3.20;;
3099;SDS011;1560;52.746;13.474;2023-02-28T06:31:15;7.00;;;3.02;;
3099;SDS011;1560;52.746;13.474;2023-02-28T06:36:22;4.45;;;2.95;;
3099;SDS011;1560;52.746;13.474;2023-02-28T06:41:28;7.28;;;2.77;;
3099;SDS011;1560;52.746;13.474;2023-02-28T06:44:00;6.12;;;3.30;;
3099;SDS011;1560;52.746;13.474;2023-02-28T06:46:40;8.13;;;3.47;;
3099;SDS011;1560;52.746;13.474;2023-02-28T06:49:13;6.42;;;3.50;;
3099;SDS011;1560;52.746;13.474;2023-02-28T06:51:43;6.87;;;3.50;;
3099;SDS011;1560;52.746;13.474;2023-02-28T06:54:25;7.00;;;3.55;;
3099;SDS011;1560;52.746;13.474;2023-02-28T06:57:04;6.67;;;3.85;;
3099;SDS011;1560;52.746;13.474;2023-02-28T06:59:34;6.83;;;3.25;;
3099;SDS011;1560;52.746;13.474;2023-02-28T07:04:43;10.38;;;4.10;;
3099;SDS011;1560;52.746;13.474;2023-02-28T07:07:12;5.65;;;3.62;;
3099;SDS011;1560;52.746;13.474;2023-02-28T07:15:07;8.58;;;4.65;;
3099;SDS011;1560;52.746;13.474;2023-02-28T07:17:37;7.30;;;3.67;;
3099;SDS011;1560;52.746;13.474;2023-02-28T07:22:45;8.28;;;4.37;;
3099;SDS011;1560;52.746;13.474;2023-02-28T07:25:43;8.05;;;4.78;;
3099;SDS011;1560;52.746;13.474;2023-02-28T07:28:13;8.03;;;4.25;;
3099;SDS011;1560;52.746;13.474;2023-02-28T07:33:19;9.98;;;4.20;;
3099;SDS011;1560;52.746;13.474;2023-02-28T07:35:48;7.12;;;3.98;;
3099;SDS011;1560;52.746;13.474;2023-02-28T07:38:17;5.90;;;4.05;;
3099;SDS011;1560;52.746;13.474;2023-02-28T07:43:22;6.75;;;4.03;;
3099;SDS011;1560;52.746;13.474;2023-02-28T07:45:51;8.40;;;4.03;;
3099;SDS011;1560;52.746;13.474;2023-02-28T07:48:29;4.85;;;3.12;;
3099;SDS011;1560;52.746;13.474;2023-02-28T07:50:58;6.60;;;3.22;;
3099;SDS011;1560;52.746;13.474;2023-02-28T07:53:27;9.05;;;3.60;;
3099;SDS011;1560;52.746;13.474;2023-02-28T07:55:58;8.53;;;4.25;;
3099;SDS011;1560;52.746;13.474;2023-02-28T07:58:36;8.53;;;5.28;;
3099;SDS011;1560;52.746;13.474;2023-02-28T08:01:06;18.67;;;7.25;;
3099;SDS011;1560;52.746;13.474;2023-02-28T08:03:36;14.15;;;7.05;;
3099;SDS011;1560;52.746;13.474;2023-02-28T08:06:07;10.82;;;5.97;;
3099;SDS011;1560;52.746;13.474;2023-02-28T08:08:37;10.75;;;5.30;;
3099;SDS011;1560;52.746;13.474;2023-02-28T08:13:43;11.05;;;5.28;;
3099;SDS011;1560;52.746;13.474;2023-02-28T08:16:12;11.22;;;5.03;;
3099;SDS011;1560;52.746;13.474;2023-02-28T08:18:47;13.78;;;5.05;;
3099;SDS011;1560;52.746;13.474;2023-02-28T08:21:17;7.92;;;4.15;;
3099;SDS011;1560;52.746;13.474;2023-02-28T08:23:47;10.70;;;5.40;;
3099;SDS011;1560;52.746;13.474;2023-02-28T08:28:52;11.05;;;5.30;;
3099;SDS011;1560;52.746;13.474;2023-02-28T08:31:21;9.30;;;6.20;;
3099;SDS011;1560;52.746;13.474;2023-02-28T08:33:50;11.18;;;4.87;;
3099;SDS011;1560;52.746;13.474;2023-02-28T08:36:19;10.70;;;5.40;;
3099;SDS011;1560;52.746;13.474;2023-02-28T08:38:48;9.13;;;5.55;;
3099;SDS011;1560;52.746;13.474;2023-02-28T08:43:53;10.43;;;5.92;;
3099;SDS011;1560;52.746;13.474;2023-02-28T08:46:22;14.23;;;6.85;;
3099;SDS011;1560;52.746;13.474;2023-02-28T08:51:28;13.20;;;7.20;;
3099;SDS011;1560;52.746;13.474;2023-02-28T08:53:58;10.23;;;5.90;;
3099;SDS011;1560;52.746;13.474;2023-02-28T08:56:28;8.60;;;5.55;;
3099;SDS011;1560;52.746;13.474;2023-02-28T08:58:57;8.93;;;5.10;;
3099;SDS011;1560;52.746;13.474;2023-02-28T09:01:26;9.93;;;5.47;;
3099;SDS011;1560;52.746;13.474;2023-02-28T09:03:56;8.85;;;5.78;;
3099;SDS011;1560;52.746;13.474;2023-02-28T09:06:34;16.77;;;5.60;;
3099;SDS011;1560;52.746;13.474;2023-02-28T09:09:03;10.60;;;6.33;;
3099;SDS011;1560;52.746;13.474;2023-02-28T09:11:34;13.95;;;6.80;;
3099;SDS011;1560;52.746;13.474;2023-02-28T09:14:03;9.00;;;5.97;;
3099;SDS011;1560;52.746;13.474;2023-02-28T09:16:32;10.20;;;5.65;;
3099;SDS011;1560;52.746;13.474;2023-02-28T09:19:10;7.30;;;4.37;;
3099;SDS011;1560;52.746;13.474;2023-02-28T09:21:39;7.37;;;5.25;;
3099;SDS011;1560;52.746;13.474;2023-02-28T09:24:08;8.40;;;5.87;;
3099;SDS011;1560;52.746;13.474;2023-02-28T09:26:46;6.85;;;4.20;;
3099;SDS011;1560;52.746;13.474;2023-02-28T09:29:14;9.75;;;5.20;;
3099;SDS011;1560;52.746;13.474;2023-02-28T09:31:52;6.37;;;3.60;;
3099;SDS011;1560;52.746;13.474;2023-02-28T09:34:21;7.62;;;3.52;;
3099;SDS011;1560;52.746;13.474;2023-02-28T09:36:50;5.90;;;4.05;;
3099;SDS011;1560;52.746;13.474;2023-02-28T09:39:21;8.23;;;3.77;;
3099;SDS011;1560;52.746;13.474;2023-02-28T09:44:35;3.47;;;2.10;;
3099;SDS011;1560;52.746;13.474;2023-02-28T09:47:07;4.40;;;2.70;;
3099;SDS011;1560;52.746;13.474;2023-02-28T09:49:45;3.98;;;2.00;;
3099;SDS011;1560;52.746;13.474;2023-02-28T09:52:15;7.50;;;2.80;;
3099;SDS011;1560;52.746;13.474;2023-02-28T09:54:46;4.25;;;2.15;;
3099;SDS011;1560;52.746;13.474;2023-02-28T09:57:29;4.08;;;2.20;;
3099;SDS011;1560;52.746;13.474;2023-02-28T09:59:59;4.50;;;2.00;;
3099;SDS011;1560;52.746;13.474;2023-02-28T10:05:16;3.87;;;1.70;;
3099;SDS011;1560;52.746;13.474;2023-02-28T10:07:53;7.78;;;2.12;;
3099;SDS011;1560;52.746;13.474;2023-02-28T10:10:29;4.47;;;1.98;;
3099;SDS011;1560;52.746;13.474;2023-02-28T10:15:38;3.25;;;1.70;;
3099;SDS011;1560;52.746;13.474;2023-02-28T10:18:09;2.92;;;1.92;;
3099;SDS011;1560;52.746;13.474;2023-02-28T10:20:41;3.27;;;2.20;;
3099;SDS011;1560;52.746;13.474;2023-02-28T10:23:13;4.00;;;2.35;;
3099;SDS011;1560;52.746;13.474;2023-02-28T10:25:52;5.50;;;2.20;;
3099;SDS011;1560;52.746;13.474;2023-02-28T10:28:24;3.25;;;2.30;;
3099;SDS011;1560;52.746;13.474;2023-02-28T10:30:55;3.87;;;2.12;;
3099;SDS011;1560;52.746;13.474;2023-02-28T10:33:28;4.30;;;1.95;;
3099;SDS011;1560;52.746;13.474;2023-02-28T10:36:05;3.75;;;2.27;;
3099;SDS011;1560;52.746;13.474;2023-02-28T10:38:38;2.75;;;1.55;;
3099;SDS011;1560;52.746;13.474;2023-02-28T10:41:08;5.08;;;1.45;;
3099;SDS011;1560;52.746;13.474;2023-02-28T10:43:38;4.70;;;1.70;;
3099;SDS011;1560;52.746;13.474;2023-02-28T10:46:12;6.90;;;2.15;;
3099;SDS011;1560;52.746;13.474;2023-02-28T10:48:46;3.90;;;2.15;;
3099;SDS011;1560;52.746;13.474;2023-02-28T10:53:54;3.47;;;1.72;;
3099;SDS011;1560;52.746;13.474;2023-02-28T10:56:24;4.05;;;1.62;;
3099;SDS011;1560;52.746;13.474;2023-02-28T10:58:54;3.55;;;1.67;;
3099;SDS011;1560;52.746;13.474;2023-02-28T11:01:27;3.47;;;1.98;;
3099;SDS011;1560;52.746;13.474;2023-02-28T11:04:03;2.70;;;1.90;;
3099;SDS011;1560;52.746;13.474;2023-02-28T11:06:41;3.10;;;2.20;;
3099;SDS011;1560;52.746;13.474;2023-02-28T11:09:16;4.35;;;2.17;;
3099;SDS011;1560;52.746;13.474;2023-02-28T11:14:24;4.10;;;2.08;;
3099;SDS011;1560;52.746;13.474;2023-02-28T11:16:56;3.83;;;1.92;;
3099;SDS011;1560;52.746;13.474;2023-02-28T11:19:35;2.55;;;1.70;;
3099;SDS011;1560;52.746;13.474;2023-02-28T11:22:16;7.00;;;2.12;;
3099;SDS011;1560;52.746;13.474;2023-02-28T11:24:48;3.17;;;1.42;;
3099;SDS011;1560;52.746;13.474;2023-02-28T11:27:25;3.80;;;2.20;;
3099;SDS011;1560;52.746;13.474;2023-02-28T11:30:27;2.05;;;1.60;;
3099;SDS011;1560;52.746;13.474;2023-02-28T11:35:38;3.47;;;1.98;;
3099;SDS011;1560;52.746;13.474;2023-02-28T11:38:08;3.25;;;2.00;;
3099;SDS011;1560;52.746;13.474;2023-02-28T11:43:19;5.33;;;2.00;;
3099;SDS011;1560;52.746;13.474;2023-02-28T11:45:57;4.72;;;1.90;;
3099;SDS011;1560;52.746;13.474;2023-02-28T11:48:32;3.45;;;2.08;;
3099;SDS011;1560;52.746;13.474;2023-02-28T11:51:05;2.42;;;1.75;;
3099;SDS011;1560;52.746;13.474;2023-02-28T11:56:43;3.37;;;2.17;;
3099;SDS011;1560;52.746;13.474;2023-02-28T11:59:18;5.22;;;2.52;;
3099;SDS011;1560;52.746;13.474;2023-02-28T12:02:18;4.80;;;2.40;;
3099;SDS011;1560;52.746;13.474;2023-02-28T12:04:50;5.10;;;2.50;;
3099;SDS011;1560;52.746;13.474;2023-02-28T12:07:28;3.92;;;2.25;;
3099;SDS011;1560;52.746;13.474;2023-02-28T12:10:01;4.92;;;2.30;;
3099;SDS011;1560;52.746;13.474;2023-02-28T12:12:38;3.58;;;2.35;;
3099;SDS011;1560;52.746;13.474;2023-02-28T12:15:17;5.67;;;1.95;;
3099;SDS011;1560;52.746;13.474;2023-02-28T12:18:10;3.87;;;1.85;;
3099;SDS011;1560;52.746;13.474;2023-02-28T12:20:51;5.10;;;2.33;;
3099;SDS011;1560;52.746;13.474;2023-02-28T12:23:41;5.65;;;2.62;;
3099;SDS011;1560;52.746;13.474;2023-02-28T12:28:52;3.17;;;2.27;;
3099;SDS011;1560;52.746;13.474;2023-02-28T12:31:31;2.75;;;1.95;;
3099;SDS011;1560;52.746;13.474;2023-02-28T12:34:04;3.65;;;2.40;;
3099;SDS011;1560;52.746;13.474;2023-02-28T12:36:36;5.72;;;2.50;;
3099;SDS011;1560;52.746;13.474;2023-02-28T12:39:08;3.30;;;2.33;;
3099;SDS011;1560;52.746;13.474;2023-02-28T12:41:47;3.15;;;2.30;;
3099;SDS011;1560;52.746;13.474;2023-02-28T12:44:20;5.70;;;2.65;;
3099;SDS011;1560;52.746;13.474;2023-02-28T12:46:51;3.87;;;2.27;;
3099;SDS011;1560;52.746;13.474;2023-02-28T12:51:59;7.62;;;3.10;;
3099;SDS011;1560;52.746;13.474;2023-02-28T12:54:32;3.87;;;2.50;;
3099;SDS011;1560;52.746;13.474;2023-02-28T12:57:05;3.55;;;2.83;;
3099;SDS011;1560;52.746;13.474;2023-02-28T12:59:36;4.47;;;2.50;;
3099;SDS011;1560;52.746;13.474;2023-02-28T13:05:16;4.30;;;2.60;;
3099;SDS011;1560;52.746;13.474;2023-02-28T13:11:01;3.17;;;2.05;;
3099;SDS011;1560;52.746;13.474;2023-02-28T13:13:30;5.65;;;2.37;;
3099;SDS011;1560;52.746;13.474;2023-02-28T13:18:37;4.80;;;2.85;;
3099;SDS011;1560;52.746;13.474;2023-02-28T13:23:57;4.50;;;2.70;;
3099;SDS011;1560;52.746;13.474;2023-02-28T13:29:51;6.15;;;2.75;;
3099;SDS011;1560;52.746;13.474;2023-02-28T13:32:31;4.12;;;2.40;;
3099;SDS011;1560;52.746;13.474;2023-02-28T13:37:50;5.22;;;2.87;;
3099;SDS011;1560;52.746;13.474;2023-02-28T13:43:08;3.80;;;2.27;;
3099;SDS011;1560;52.746;13.474;2023-02-28T13:45:37;4.62;;;2.70;;
3099;SDS011;1560;52.746;13.474;2023-02-28T13:48:15;6.78;;;2.62;;
3099;SDS011;1560;52.746;13.474;2023-02-28T13:50:46;6.60;;;3.33;;
3099;SDS011;1560;52.746;13.474;2023-02-28T13:56:23;5.15;;;3.22;;
3099;SDS011;1560;52.746;13.474;2023-02-28T13:58:58;7.67;;;2.72;;
3099;SDS011;1560;52.746;13.474;2023-02-28T14:01:33;3.92;;;2.55;;
3099;SDS011;1560;52.746;13.474;2023-02-28T14:04:27;4.53;;;2.70;;
3099;SDS011;1560;52.746;13.474;2023-02-28T14:10:00;2.77;;;2.35;;
3099;SDS011;1560;52.746;13.474;2023-02-28T14:15:55;4.70;;;3.25;;
3099;SDS011;1560;52.746;13.474;2023-02-28T14:18:27;5.40;;;3.17;;
3099;SDS011;1560;52.746;13.474;2023-02-28T14:20:59;4.95;;;2.60;;
3099;SDS011;1560;52.746;13.474;2023-02-28T14:23:48;5.95;;;2.70;;
3099;SDS011;1560;52.746;13.474;2023-02-28T14:26:47;3.75;;;2.35;;
3099;SDS011;1560;52.746;13.474;2023-02-28T14:29:33;4.05;;;2.60;;
3099;SDS011;1560;52.746;13.474;2023-02-28T14:32:10;5.78;;;2.72;;
3099;SDS011;1560;52.746;13.474;2023-02-28T14:34:41;5.30;;;3.40;;
3099;SDS011;1560;52.746;13.474;2023-02-28T14:39:50;6.75;;;2.60;;
3099;SDS011;1560;52.746;13.474;2023-02-28T14:45:17;4.75;;;2.90;;
3099;SDS011;1560;52.746;13.474;2023-02-28T14:47:47;3.58;;;2.50;;
3099;SDS011;1560;52.746;13.474;2023-02-28T14:50:19;6.42;;;2.70;;
3099;SDS011;1560;52.746;13.474;2023-02-28T14:52:52;3.55;;;2.30;;
3099;SDS011;1560;52.746;13.474;2023-02-28T14:55:23;5.40;;;2.80;;
3099;SDS011;1560;52.746;13.474;2023-02-28T14:57:54;4.35;;;2.55;;
3099;SDS011;1560;52.746;13.474;2023-02-28T15:03:01;3.77;;;2.50;;
3099;SDS011;1560;52.746;13.474;2023-02-28T15:05:41;4.40;;;2.50;;
3099;SDS011;1560;52.746;13.474;2023-02-28T15:08:12;4.05;;;2.67;;
3099;SDS011;1560;52.746;13.474;2023-02-28T15:10:50;7.37;;;3.00;;
3099;SDS011;1560;52.746;13.474;2023-02-28T15:13:21;4.20;;;2.60;;
3099;SDS011;1560;52.746;13.474;2023-02-28T15:15:54;5.37;;;2.50;;
3099;SDS011;1560;52.746;13.474;2023-02-28T15:18:28;3.47;;;1.95;;
3099;SDS011;1560;52.746;13.474;2023-02-28T15:21:00;4.08;;;2.15;;
3099;SDS011;1560;52.746;13.474;2023-02-28T15:23:31;3.65;;;2.20;;
3099;SDS011;1560;52.746;13.474;2023-02-28T15:26:10;4.87;;;2.40;;
3099;SDS011;1560;52.746;13.474;2023-02-28T15:28:43;4.05;;;3.02;;
3099;SDS011;1560;52.746;13.474;2023-02-28T15:31:27;6.25;;;2.35;;
3099;SDS011;1560;52.746;13.474;2023-02-28T15:34:04;3.92;;;2.50;;
3099;SDS011;1560;52.746;13.474;2023-02-28T15:36:42;4.92;;;2.35;;
3099;SDS011;1560;52.746;13.474;2023-02-28T15:39:18;4.25;;;2.50;;
3099;SDS011;1560;52.746;13.474;2023-02-28T15:41:49;2.85;;;2.12;;
3099;SDS011;1560;52.746;13.474;2023-02-28T15:57:29;3.27;;;2.00;;
3099;SDS011;1560;52.746;13.474;2023-02-28T16:00:09;5.47;;;2.77;;
3099;SDS011;1560;52.746;13.474;2023-02-28T16:13:12;4.50;;;2.10;;
3099;SDS011;1560;52.746;13.474;2023-02-28T16:15:44;4.12;;;2.10;;
3099;SDS011;1560;52.746;13.474;2023-02-28T16:18:17;4.62;;;2.15;;
3099;SDS011;1560;52.746;13.474;2023-02-28T16:20:47;2.83;;;2.05;;
3099;SDS011;1560;52.746;13.474;2023-02-28T16:23:16;6.75;;;2.35;;
3099;SDS011;1560;52.746;13.474;2023-02-28T16:25:47;3.55;;;2.00;;
3099;SDS011;1560;52.746;13.474;2023-02-28T16:28:20;5.45;;;2.20;;
3099;SDS011;1560;52.746;13.474;2023-02-28T16:30:55;4.33;;;2.75;;
3099;SDS011;1560;52.746;13.474;2023-02-28T17:05:56;4.95;;;2.65;;
3099;SDS011;1560;52.746;13.474;2023-02-28T17:08:26;4.70;;;2.25;;
3099;SDS011;1560;52.746;13.474;2023-02-28T17:24:36;3.25;;;2.42;;
3099;SDS011;1560;52.746;13.474;2023-02-28T17:27:05;5.30;;;2.30;;
3099;SDS011;1560;52.746;13.474;2023-02-28T17:29:39;6.45;;;2.60;;
3099;SDS011;1560;52.746;13.474;2023-02-28T17:34:50;4.03;;;2.55;;
3099;SDS011;1560;52.746;13.474;2023-02-28T17:37:19;3.37;;;2.30;;
3099;SDS011;1560;52.746;13.474;2023-02-28T17:39:47;4.47;;;2.80;;
3099;SDS011;1560;52.746;13.474;2023-02-28T17:42:16;6.28;;;2.40;;
3099;SDS011;1560;52.746;13.474;2023-02-28T17:44:45;5.95;;;2.60;;
3099;SDS011;1560;52.746;13.474;2023-02-28T17:49:50;6.25;;;2.80;;
3099;SDS011;1560;52.746;13.474;2023-02-28T17:54:55;4.75;;;2.52;;
3099;SDS011;1560;52.746;13.474;2023-02-28T17:57:24;4.78;;;2.85;;
3099;SDS011;1560;52.746;13.474;2023-02-28T18:00:02;4.97;;;2.40;;
3099;SDS011;1560;52.746;13.474;2023-02-28T18:02:33;5.05;;;2.65;;
3099;SDS011;1560;52.746;13.474;2023-02-28T18:05:10;4.28;;;2.50;;
3099;SDS011;1560;52.746;13.474;2023-02-28T18:07:40;3.40;;;2.37;;
3099;SDS011;1560;52.746;13.474;2023-02-28T18:10:11;9.10;;;4.55;;
3099;SDS011;1560;52.746;13.474;2023-02-28T18:12:45;7.55;;;3.70;;
3099;SDS011;1560;52.746;13.474;2023-02-28T18:15:14;5.15;;;2.92;;
3099;SDS011;1560;52.746;13.474;2023-02-28T18:17:46;4.62;;;2.60;;
3099;SDS011;1560;52.746;13.474;2023-02-28T18:25:20;6.15;;;3.08;;
3099;SDS011;1560;52.746;13.474;2023-02-28T18:27:49;4.37;;;3.00;;
3099;SDS011;1560;52.746;13.474;2023-02-28T18:33:06;4.85;;;2.90;;
3099;SDS011;1560;52.746;13.474;2023-02-28T18:35:36;4.80;;;3.12;;
3099;SDS011;1560;52.746;13.474;2023-02-28T18:38:14;3.58;;;2.58;;
3099;SDS011;1560;52.746;13.474;2023-02-28T18:40:50;8.25;;;3.00;;
3099;SDS011;1560;52.746;13.474;2023-02-28T18:43:20;5.90;;;2.70;;
3099;SDS011;1560;52.746;13.474;2023-02-28T18:45:49;4.12;;;2.45;;
3099;SDS011;1560;52.746;13.474;2023-02-28T18:48:18;3.80;;;2.80;;
3099;SDS011;1560;52.746;13.474;2023-02-28T18:50:48;4.37;;;2.47;;
3099;SDS011;1560;52.746;13.474;2023-02-28T18:53:17;8.40;;;3.45;;
3099;SDS011;1560;52.746;13.474;2023-02-28T18:55:46;6.33;;;2.70;;
3099;SDS011;1560;52.746;13.474;2023-02-28T18:58:15;5.65;;;2.75;;
3099;SDS011;1560;52.746;13.474;2023-02-28T19:03:20;4.28;;;2.70;;
3099;SDS011;1560;52.746;13.474;2023-02-28T19:05:49;5.87;;;3.02;;
3099;SDS011;1560;52.746;13.474;2023-02-28T19:08:21;4.45;;;2.95;;
3099;SDS011;1560;52.746;13.474;2023-02-28T19:10:50;5.55;;;2.83;;
3099;SDS011;1560;52.746;13.474;2023-02-28T19:13:19;8.43;;;2.85;;
3099;SDS011;1560;52.746;13.474;2023-02-28T19:15:48;5.08;;;3.15;;
3099;SDS011;1560;52.746;13.474;2023-02-28T19:18:25;5.53;;;2.60;;
3099;SDS011;1560;52.746;13.474;2023-02-28T19:23:30;4.15;;;2.80;;
3099;SDS011;1560;52.746;13.474;2023-02-28T19:26:03;6.00;;;2.90;;
3099;SDS011;1560;52.746;13.474;2023-02-28T19:28:33;5.15;;;2.55;;
3099;SDS011;1560;52.746;13.474;2023-02-28T19:31:02;6.78;;;3.30;;
3099;SDS011;1560;52.746;13.474;2023-02-28T19:33:31;7.20;;;3.67;;
3099;SDS011;1560;52.746;13.474;2023-02-28T19:36:09;4.72;;;2.87;;
3099;SDS011;1560;52.746;13.474;2023-02-28T19:38:39;6.35;;;3.37;;